sensor_id;sensor_type;location;lat;lon;timestamp;P1;durP1;ratioP1;P2;durP2;ratioP2
2966;SDS011;1493;51.496;7.210;2024-02-15T00:00:19;12.63;;;9.37;;
2966;SDS011;1493;51.496;7.210;2024-02-15T00:02:47;10.93;;;8.07;;
2966;SDS011;1493;51.496;7.210;2024-02-15T00:05:15;9.90;;;8.87;;
2966;SDS011;1493;51.496;7.210;2024-02-15T00:07:42;12.20;;;8.57;;
2966;SDS011;1493;51.496;7.210;2024-02-15T00:10:13;9.77;;;7.97;;
2966;SDS011;1493;51.496;7.210;2024-02-15T00:12:40;10.53;;;6.87;;
2966;SDS011;1493;51.496;7.210;2024-02-15T00:15:07;15.87;;;9.00;;
2966;SDS011;1493;51.496;7.210;2024-02-15T00:17:35;12.40;;;8.00;;
2966;SDS011;1493;51.496;7.210;2024-02-15T00:20:02;13.50;;;9.20;;
2966;SDS011;1493;51.496;7.210;2024-02-15T00:22:35;10.23;;;8.00;;
2966;SDS011;1493;51.496;7.210;2024-02-15T00:25:02;11.83;;;8.20;;
2966;SDS011;1493;51.496;7.210;2024-02-15T00:27:31;12.07;;;8.03;;
2966;SDS011;1493;51.496;7.210;2024-02-15T00:30:00;19.70;;;9.70;;
2966;SDS011;1493;51.496;7.210;2024-02-15T00:32:26;13.47;;;9.53;;
2966;SDS011;1493;51.496;7.210;2024-02-15T00:34:53;14.27;;;10.90;;
2966;SDS011;1493;51.496;7.210;2024-02-15T00:37:20;15.70;;;10.63;;
2966;SDS011;1493;51.496;7.210;2024-02-15T00:39:48;13.27;;;9.83;;
2966;SDS011;1493;51.496;7.210;2024-02-15T00:42:15;14.80;;;9.97;;
2966;SDS011;1493;51.496;7.210;2024-02-15T00:44:42;16.87;;;9.93;;
2966;SDS011;1493;51.496;7.210;2024-02-15T00:47:09;14.20;;;10.33;;
2966;SDS011;1493;51.496;7.210;2024-02-15T00:49:35;11.67;;;9.27;;
2966;SDS011;1493;51.496;7.210;2024-02-15T00:52:02;12.50;;;10.53;;
2966;SDS011;1493;51.496;7.210;2024-02-15T00:54:29;13.00;;;10.43;;
2966;SDS011;1493;51.496;7.210;2024-02-15T00:56:58;19.83;;;11.73;;
2966;SDS011;1493;51.496;7.210;2024-02-15T00:59:24;11.47;;;10.30;;
2966;SDS011;1493;51.496;7.210;2024-02-15T01:01:51;14.70;;;10.57;;
2966;SDS011;1493;51.496;7.210;2024-02-15T01:04:18;13.47;;;10.50;;
2966;SDS011;1493;51.496;7.210;2024-02-15T01:06:45;11.33;;;9.30;;
2966;SDS011;1493;51.496;7.210;2024-02-15T01:09:12;15.13;;;10.40;;
2966;SDS011;1493;51.496;7.210;2024-02-15T01:11:39;14.60;;;10.80;;
2966;SDS011;1493;51.496;7.210;2024-02-15T01:14:07;14.03;;;9.90;;
2966;SDS011;1493;51.496;7.210;2024-02-15T01:16:34;11.33;;;10.13;;
2966;SDS011;1493;51.496;7.210;2024-02-15T01:19:02;16.57;;;10.20;;
2966;SDS011;1493;51.496;7.210;2024-02-15T01:21:29;13.27;;;10.43;;
2966;SDS011;1493;51.496;7.210;2024-02-15T01:23:58;15.80;;;10.63;;
2966;SDS011;1493;51.496;7.210;2024-02-15T01:26:25;12.93;;;9.63;;
2966;SDS011;1493;51.496;7.210;2024-02-15T01:28:52;12.17;;;10.07;;
2966;SDS011;1493;51.496;7.210;2024-02-15T01:31:20;20.17;;;10.07;;
2966;SDS011;1493;51.496;7.210;2024-02-15T01:33:47;17.83;;;12.07;;
2966;SDS011;1493;51.496;7.210;2024-02-15T01:36:14;12.30;;;9.83;;
2966;SDS011;1493;51.496;7.210;2024-02-15T01:38:41;15.90;;;11.70;;
2966;SDS011;1493;51.496;7.210;2024-02-15T01:41:08;13.47;;;10.40;;
2966;SDS011;1493;51.496;7.210;2024-02-15T01:43:35;14.53;;;9.73;;
2966;SDS011;1493;51.496;7.210;2024-02-15T01:46:02;17.20;;;10.50;;
2966;SDS011;1493;51.496;7.210;2024-02-15T01:48:37;18.63;;;10.97;;
2966;SDS011;1493;51.496;7.210;2024-02-15T01:51:06;14.97;;;10.47;;
2966;SDS011;1493;51.496;7.210;2024-02-15T01:53:33;14.43;;;9.60;;
2966;SDS011;1493;51.496;7.210;2024-02-15T01:56:00;15.33;;;10.40;;
2966;SDS011;1493;51.496;7.210;2024-02-15T01:58:27;15.70;;;9.60;;
2966;SDS011;1493;51.496;7.210;2024-02-15T02:00:57;15.40;;;9.53;;
2966;SDS011;1493;51.496;7.210;2024-02-15T02:03:24;14.10;;;9.63;;
2966;SDS011;1493;51.496;7.210;2024-02-15T02:05:52;13.03;;;10.33;;
2966;SDS011;1493;51.496;7.210;2024-02-15T02:08:19;11.93;;;9.40;;
2966;SDS011;1493;51.496;7.210;2024-02-15T02:10:47;14.73;;;11.53;;
2966;SDS011;1493;51.496;7.210;2024-02-15T02:13:14;18.97;;;10.30;;
2966;SDS011;1493;51.496;7.210;2024-02-15T02:15:41;12.10;;;9.50;;
2966;SDS011;1493;51.496;7.210;2024-02-15T02:18:08;16.93;;;8.97;;
2966;SDS011;1493;51.496;7.210;2024-02-15T02:20:35;13.53;;;9.90;;
2966;SDS011;1493;51.496;7.210;2024-02-15T02:23:05;11.40;;;9.57;;
2966;SDS011;1493;51.496;7.210;2024-02-15T02:25:36;11.23;;;8.03;;
2966;SDS011;1493;51.496;7.210;2024-02-15T02:28:03;14.23;;;8.13;;
2966;SDS011;1493;51.496;7.210;2024-02-15T02:30:31;11.10;;;8.97;;
2966;SDS011;1493;51.496;7.210;2024-02-15T02:32:58;12.87;;;8.50;;
2966;SDS011;1493;51.496;7.210;2024-02-15T02:35:25;11.33;;;9.30;;
2966;SDS011;1493;51.496;7.210;2024-02-15T02:37:53;12.83;;;8.83;;
2966;SDS011;1493;51.496;7.210;2024-02-15T02:40:19;16.40;;;10.10;;
2966;SDS011;1493;51.496;7.210;2024-02-15T02:42:49;14.13;;;9.73;;
2966;SDS011;1493;51.496;7.210;2024-02-15T02:45:17;14.37;;;10.40;;
2966;SDS011;1493;51.496;7.210;2024-02-15T02:47:47;22.63;;;11.00;;
2966;SDS011;1493;51.496;7.210;2024-02-15T02:50:14;18.73;;;10.50;;
2966;SDS011;1493;51.496;7.210;2024-02-15T02:52:41;12.47;;;9.40;;
2966;SDS011;1493;51.496;7.210;2024-02-15T02:55:08;13.83;;;10.10;;
2966;SDS011;1493;51.496;7.210;2024-02-15T02:57:35;16.10;;;9.20;;
2966;SDS011;1493;51.496;7.210;2024-02-15T03:00:05;11.50;;;8.57;;
2966;SDS011;1493;51.496;7.210;2024-02-15T03:02:35;17.40;;;8.80;;
2966;SDS011;1493;51.496;7.210;2024-02-15T03:05:02;10.90;;;7.73;;
2966;SDS011;1493;51.496;7.210;2024-02-15T03:07:32;11.70;;;7.60;;
2966;SDS011;1493;51.496;7.210;2024-02-15T03:09:59;11.60;;;7.50;;
2966;SDS011;1493;51.496;7.210;2024-02-15T03:12:26;10.27;;;7.23;;
2966;SDS011;1493;51.496;7.210;2024-02-15T03:14:54;11.00;;;6.80;;
2966;SDS011;1493;51.496;7.210;2024-02-15T03:17:22;16.50;;;7.50;;
2966;SDS011;1493;51.496;7.210;2024-02-15T03:19:49;13.20;;;6.90;;
2966;SDS011;1493;51.496;7.210;2024-02-15T03:22:16;16.50;;;6.50;;
2966;SDS011;1493;51.496;7.210;2024-02-15T03:24:43;13.17;;;6.37;;
2966;SDS011;1493;51.496;7.210;2024-02-15T03:27:09;9.43;;;5.53;;
2966;SDS011;1493;51.496;7.210;2024-02-15T03:29:37;10.17;;;6.47;;
2966;SDS011;1493;51.496;7.210;2024-02-15T03:32:04;12.07;;;6.73;;
2966;SDS011;1493;51.496;7.210;2024-02-15T03:34:33;8.50;;;5.10;;
2966;SDS011;1493;51.496;7.210;2024-02-15T03:37:00;9.10;;;5.33;;
2966;SDS011;1493;51.496;7.210;2024-02-15T03:39:32;11.33;;;7.17;;
2966;SDS011;1493;51.496;7.210;2024-02-15T03:42:02;9.77;;;6.20;;
2966;SDS011;1493;51.496;7.210;2024-02-15T03:44:30;9.73;;;5.90;;
2966;SDS011;1493;51.496;7.210;2024-02-15T03:46:57;10.20;;;5.53;;
2966;SDS011;1493;51.496;7.210;2024-02-15T03:49:24;15.73;;;6.80;;
2966;SDS011;1493;51.496;7.210;2024-02-15T03:51:53;10.23;;;5.83;;
2966;SDS011;1493;51.496;7.210;2024-02-15T03:54:20;8.40;;;5.50;;
2966;SDS011;1493;51.496;7.210;2024-02-15T03:56:47;10.30;;;5.93;;
2966;SDS011;1493;51.496;7.210;2024-02-15T03:59:16;14.20;;;8.17;;
2966;SDS011;1493;51.496;7.210;2024-02-15T04:01:46;10.07;;;5.80;;
2966;SDS011;1493;51.496;7.210;2024-02-15T04:04:13;8.67;;;5.40;;
2966;SDS011;1493;51.496;7.210;2024-02-15T04:06:40;9.50;;;5.37;;
2966;SDS011;1493;51.496;7.210;2024-02-15T04:09:09;8.00;;;4.80;;
2966;SDS011;1493;51.496;7.210;2024-02-15T04:11:35;7.50;;;5.17;;
2966;SDS011;1493;51.496;7.210;2024-02-15T04:14:03;6.27;;;4.37;;
2966;SDS011;1493;51.496;7.210;2024-02-15T04:16:30;10.80;;;4.03;;
2966;SDS011;1493;51.496;7.210;2024-02-15T04:18:58;7.53;;;3.87;;
2966;SDS011;1493;51.496;7.210;2024-02-15T04:21:26;9.03;;;4.80;;
2966;SDS011;1493;51.496;7.210;2024-02-15T04:23:53;11.47;;;5.10;;
2966;SDS011;1493;51.496;7.210;2024-02-15T04:26:21;7.43;;;3.40;;
2966;SDS011;1493;51.496;7.210;2024-02-15T04:28:51;8.60;;;4.70;;
2966;SDS011;1493;51.496;7.210;2024-02-15T04:31:18;7.93;;;4.17;;
2966;SDS011;1493;51.496;7.210;2024-02-15T04:33:51;7.93;;;4.10;;
2966;SDS011;1493;51.496;7.210;2024-02-15T04:36:18;5.90;;;4.00;;
2966;SDS011;1493;51.496;7.210;2024-02-15T04:38:48;7.10;;;3.97;;
2966;SDS011;1493;51.496;7.210;2024-02-15T04:41:16;6.07;;;3.13;;
2966;SDS011;1493;51.496;7.210;2024-02-15T04:43:46;3.33;;;2.80;;
2966;SDS011;1493;51.496;7.210;2024-02-15T04:46:13;9.10;;;3.63;;
2966;SDS011;1493;51.496;7.210;2024-02-15T04:48:40;6.23;;;3.40;;
2966;SDS011;1493;51.496;7.210;2024-02-15T04:51:08;7.73;;;3.10;;
2966;SDS011;1493;51.496;7.210;2024-02-15T04:53:35;6.63;;;3.30;;
2966;SDS011;1493;51.496;7.210;2024-02-15T04:56:03;7.10;;;3.33;;
2966;SDS011;1493;51.496;7.210;2024-02-15T04:58:36;4.73;;;2.97;;
2966;SDS011;1493;51.496;7.210;2024-02-15T05:01:11;6.23;;;3.27;;
2966;SDS011;1493;51.496;7.210;2024-02-15T05:03:39;8.07;;;3.00;;
2966;SDS011;1493;51.496;7.210;2024-02-15T05:06:06;5.27;;;2.57;;
2966;SDS011;1493;51.496;7.210;2024-02-15T05:08:34;11.47;;;2.87;;
2966;SDS011;1493;51.496;7.210;2024-02-15T05:11:07;9.00;;;2.93;;
2966;SDS011;1493;51.496;7.210;2024-02-15T05:13:39;6.07;;;3.00;;
2966;SDS011;1493;51.496;7.210;2024-02-15T05:16:06;5.50;;;2.70;;
2966;SDS011;1493;51.496;7.210;2024-02-15T05:18:34;5.37;;;2.90;;
2966;SDS011;1493;51.496;7.210;2024-02-15T05:21:01;6.07;;;2.60;;
2966;SDS011;1493;51.496;7.210;2024-02-15T05:23:28;4.43;;;2.90;;
2966;SDS011;1493;51.496;7.210;2024-02-15T05:25:55;5.47;;;2.80;;
2966;SDS011;1493;51.496;7.210;2024-02-15T05:28:23;6.80;;;2.43;;
2966;SDS011;1493;51.496;7.210;2024-02-15T05:31:08;5.50;;;2.27;;
2966;SDS011;1493;51.496;7.210;2024-02-15T05:33:37;7.07;;;2.97;;
2966;SDS011;1493;51.496;7.210;2024-02-15T05:36:07;6.60;;;2.50;;
2966;SDS011;1493;51.496;7.210;2024-02-15T05:38:35;10.33;;;3.67;;
2966;SDS011;1493;51.496;7.210;2024-02-15T05:41:02;4.50;;;2.00;;
2966;SDS011;1493;51.496;7.210;2024-02-15T05:43:29;3.33;;;2.23;;
2966;SDS011;1493;51.496;7.210;2024-02-15T05:45:57;4.37;;;2.40;;
2966;SDS011;1493;51.496;7.210;2024-02-15T05:48:25;2.70;;;2.07;;
2966;SDS011;1493;51.496;7.210;2024-02-15T05:50:54;3.30;;;2.20;;
2966;SDS011;1493;51.496;7.210;2024-02-15T05:53:22;3.07;;;2.13;;
2966;SDS011;1493;51.496;7.210;2024-02-15T05:55:49;4.93;;;2.30;;
2966;SDS011;1493;51.496;7.210;2024-02-15T05:58:16;5.20;;;2.43;;
2966;SDS011;1493;51.496;7.210;2024-02-15T06:00:43;2.73;;;2.03;;
2966;SDS011;1493;51.496;7.210;2024-02-15T06:03:14;3.73;;;1.97;;
2966;SDS011;1493;51.496;7.210;2024-02-15T06:05:41;7.27;;;1.83;;
2966;SDS011;1493;51.496;7.210;2024-02-15T06:08:09;4.07;;;2.70;;
2966;SDS011;1493;51.496;7.210;2024-02-15T06:10:37;6.77;;;3.03;;
2966;SDS011;1493;51.496;7.210;2024-02-15T06:13:04;3.17;;;1.97;;
2966;SDS011;1493;51.496;7.210;2024-02-15T06:15:31;6.60;;;2.10;;
2966;SDS011;1493;51.496;7.210;2024-02-15T06:17:58;4.43;;;2.00;;
2966;SDS011;1493;51.496;7.210;2024-02-15T06:20:25;6.40;;;2.07;;
2966;SDS011;1493;51.496;7.210;2024-02-15T06:22:55;4.03;;;2.47;;
2966;SDS011;1493;51.496;7.210;2024-02-15T06:25:23;10.13;;;4.20;;
2966;SDS011;1493;51.496;7.210;2024-02-15T06:27:51;7.30;;;3.40;;
2966;SDS011;1493;51.496;7.210;2024-02-15T06:30:23;3.40;;;2.20;;
2966;SDS011;1493;51.496;7.210;2024-02-15T06:33:07;5.60;;;2.30;;
2966;SDS011;1493;51.496;7.210;2024-02-15T06:36:03;4.43;;;2.20;;
2966;SDS011;1493;51.496;7.210;2024-02-15T06:38:48;6.70;;;2.57;;
2966;SDS011;1493;51.496;7.210;2024-02-15T06:41:34;5.17;;;3.03;;
2966;SDS011;1493;51.496;7.210;2024-02-15T06:44:00;4.03;;;2.13;;
2966;SDS011;1493;51.496;7.210;2024-02-15T06:46:28;3.20;;;2.00;;
2966;SDS011;1493;51.496;7.210;2024-02-15T06:48:54;5.30;;;2.20;;
2966;SDS011;1493;51.496;7.210;2024-02-15T06:51:23;2.40;;;2.00;;
2966;SDS011;1493;51.496;7.210;2024-02-15T06:53:50;7.07;;;3.07;;
2966;SDS011;1493;51.496;7.210;2024-02-15T06:56:20;7.50;;;2.80;;
2966;SDS011;1493;51.496;7.210;2024-02-15T06:58:49;7.00;;;2.90;;
2966;SDS011;1493;51.496;7.210;2024-02-15T07:01:16;4.10;;;2.83;;
2966;SDS011;1493;51.496;7.210;2024-02-15T07:03:43;6.60;;;2.33;;
2966;SDS011;1493;51.496;7.210;2024-02-15T07:06:10;9.00;;;2.83;;
2966;SDS011;1493;51.496;7.210;2024-02-15T07:08:38;3.60;;;2.20;;
2966;SDS011;1493;51.496;7.210;2024-02-15T07:11:06;3.93;;;2.60;;
2966;SDS011;1493;51.496;7.210;2024-02-15T07:13:34;6.27;;;2.30;;
2966;SDS011;1493;51.496;7.210;2024-02-15T07:16:02;5.13;;;2.40;;
2966;SDS011;1493;51.496;7.210;2024-02-15T07:18:33;4.33;;;2.20;;
2966;SDS011;1493;51.496;7.210;2024-02-15T07:21:00;5.83;;;3.33;;
2966;SDS011;1493;51.496;7.210;2024-02-15T07:23:29;8.50;;;2.50;;
2966;SDS011;1493;51.496;7.210;2024-02-15T07:25:55;6.00;;;2.40;;
2966;SDS011;1493;51.496;7.210;2024-02-15T07:28:23;8.43;;;3.67;;
2966;SDS011;1493;51.496;7.210;2024-02-15T07:30:51;3.07;;;2.53;;
2966;SDS011;1493;51.496;7.210;2024-02-15T07:33:20;7.23;;;3.10;;
2966;SDS011;1493;51.496;7.210;2024-02-15T07:35:48;6.10;;;3.20;;
2966;SDS011;1493;51.496;7.210;2024-02-15T07:38:32;8.27;;;3.40;;
2966;SDS011;1493;51.496;7.210;2024-02-15T07:40:59;4.40;;;2.47;;
2966;SDS011;1493;51.496;7.210;2024-02-15T07:43:26;7.40;;;2.73;;
2966;SDS011;1493;51.496;7.210;2024-02-15T07:45:53;5.90;;;2.93;;
2966;SDS011;1493;51.496;7.210;2024-02-15T07:48:22;5.80;;;2.80;;
2966;SDS011;1493;51.496;7.210;2024-02-15T07:50:48;5.33;;;2.80;;
2966;SDS011;1493;51.496;7.210;2024-02-15T07:53:15;5.13;;;2.73;;
2966;SDS011;1493;51.496;7.210;2024-02-15T07:55:44;5.17;;;3.27;;
2966;SDS011;1493;51.496;7.210;2024-02-15T07:58:11;9.83;;;2.43;;
2966;SDS011;1493;51.496;7.210;2024-02-15T08:00:38;4.27;;;2.27;;
2966;SDS011;1493;51.496;7.210;2024-02-15T08:03:05;6.53;;;2.63;;
2966;SDS011;1493;51.496;7.210;2024-02-15T08:05:34;4.20;;;2.50;;
2966;SDS011;1493;51.496;7.210;2024-02-15T08:08:02;4.20;;;2.33;;
2966;SDS011;1493;51.496;7.210;2024-02-15T08:10:29;7.83;;;3.40;;
2966;SDS011;1493;51.496;7.210;2024-02-15T08:12:59;7.27;;;2.87;;
2966;SDS011;1493;51.496;7.210;2024-02-15T08:15:26;12.57;;;2.73;;
2966;SDS011;1493;51.496;7.210;2024-02-15T08:17:53;9.47;;;3.13;;
2966;SDS011;1493;51.496;7.210;2024-02-15T08:20:21;3.10;;;2.67;;
2966;SDS011;1493;51.496;7.210;2024-02-15T08:22:49;3.67;;;2.33;;
2966;SDS011;1493;51.496;7.210;2024-02-15T08:25:16;6.60;;;2.37;;
2966;SDS011;1493;51.496;7.210;2024-02-15T08:27:46;5.60;;;3.10;;
2966;SDS011;1493;51.496;7.210;2024-02-15T08:30:16;3.77;;;2.33;;
2966;SDS011;1493;51.496;7.210;2024-02-15T08:32:43;8.83;;;2.47;;
2966;SDS011;1493;51.496;7.210;2024-02-15T08:35:12;4.50;;;2.70;;
2966;SDS011;1493;51.496;7.210;2024-02-15T08:37:40;5.27;;;2.20;;
2966;SDS011;1493;51.496;7.210;2024-02-15T08:40:10;5.00;;;2.60;;
2966;SDS011;1493;51.496;7.210;2024-02-15T08:42:40;6.13;;;2.70;;
2966;SDS011;1493;51.496;7.210;2024-02-15T08:45:08;8.80;;;2.73;;
2966;SDS011;1493;51.496;7.210;2024-02-15T08:47:36;8.47;;;3.10;;
2966;SDS011;1493;51.496;7.210;2024-02-15T08:50:04;11.43;;;2.83;;
2966;SDS011;1493;51.496;7.210;2024-02-15T08:52:34;8.10;;;2.50;;
2966;SDS011;1493;51.496;7.210;2024-02-15T08:55:03;6.07;;;2.07;;
2966;SDS011;1493;51.496;7.210;2024-02-15T08:57:33;6.20;;;2.77;;
2966;SDS011;1493;51.496;7.210;2024-02-15T09:00:01;4.40;;;2.47;;
2966;SDS011;1493;51.496;7.210;2024-02-15T09:02:30;4.03;;;2.50;;
2966;SDS011;1493;51.496;7.210;2024-02-15T09:04:58;7.60;;;2.40;;
2966;SDS011;1493;51.496;7.210;2024-02-15T09:07:25;6.07;;;2.50;;
2966;SDS011;1493;51.496;7.210;2024-02-15T09:09:52;8.83;;;2.53;;
2966;SDS011;1493;51.496;7.210;2024-02-15T09:12:20;5.40;;;1.87;;
2966;SDS011;1493;51.496;7.210;2024-02-15T09:14:48;3.80;;;1.60;;
2966;SDS011;1493;51.496;7.210;2024-02-15T09:17:15;4.63;;;2.10;;
2966;SDS011;1493;51.496;7.210;2024-02-15T09:19:42;8.30;;;2.33;;
2966;SDS011;1493;51.496;7.210;2024-02-15T09:22:09;5.37;;;2.57;;
2966;SDS011;1493;51.496;7.210;2024-02-15T09:24:37;4.27;;;1.90;;
2966;SDS011;1493;51.496;7.210;2024-02-15T09:27:04;4.37;;;2.17;;
2966;SDS011;1493;51.496;7.210;2024-02-15T09:29:31;6.20;;;2.10;;
2966;SDS011;1493;51.496;7.210;2024-02-15T09:32:00;4.60;;;2.50;;
2966;SDS011;1493;51.496;7.210;2024-02-15T09:34:27;2.47;;;1.93;;
2966;SDS011;1493;51.496;7.210;2024-02-15T09:36:54;7.50;;;2.00;;
2966;SDS011;1493;51.496;7.210;2024-02-15T09:39:21;5.60;;;2.83;;
2966;SDS011;1493;51.496;7.210;2024-02-15T09:41:48;6.33;;;2.30;;
2966;SDS011;1493;51.496;7.210;2024-02-15T09:44:23;4.07;;;2.20;;
2966;SDS011;1493;51.496;7.210;2024-02-15T09:46:53;3.20;;;1.60;;
2966;SDS011;1493;51.496;7.210;2024-02-15T09:49:30;4.40;;;2.17;;
2966;SDS011;1493;51.496;7.210;2024-02-15T09:52:01;5.43;;;2.00;;
2966;SDS011;1493;51.496;7.210;2024-02-15T09:54:29;3.43;;;1.90;;
2966;SDS011;1493;51.496;7.210;2024-02-15T09:56:57;5.20;;;2.03;;
2966;SDS011;1493;51.496;7.210;2024-02-15T09:59:29;4.03;;;1.80;;
2966;SDS011;1493;51.496;7.210;2024-02-15T10:01:57;2.30;;;1.77;;
2966;SDS011;1493;51.496;7.210;2024-02-15T10:04:25;4.70;;;2.37;;
2966;SDS011;1493;51.496;7.210;2024-02-15T10:06:53;3.23;;;1.60;;
2966;SDS011;1493;51.496;7.210;2024-02-15T10:09:23;4.57;;;1.90;;
2966;SDS011;1493;51.496;7.210;2024-02-15T10:11:54;4.70;;;2.20;;
2966;SDS011;1493;51.496;7.210;2024-02-15T10:14:22;4.63;;;1.60;;
2966;SDS011;1493;51.496;7.210;2024-02-15T10:16:49;3.70;;;1.70;;
2966;SDS011;1493;51.496;7.210;2024-02-15T10:19:17;4.90;;;1.87;;
2966;SDS011;1493;51.496;7.210;2024-02-15T10:21:51;4.10;;;1.37;;
2966;SDS011;1493;51.496;7.210;2024-02-15T10:24:22;10.77;;;1.87;;
2966;SDS011;1493;51.496;7.210;2024-02-15T10:26:50;7.97;;;1.50;;
2966;SDS011;1493;51.496;7.210;2024-02-15T10:29:16;3.27;;;1.80;;
2966;SDS011;1493;51.496;7.210;2024-02-15T10:31:52;3.30;;;1.50;;
2966;SDS011;1493;51.496;7.210;2024-02-15T10:34:19;3.80;;;1.40;;
2966;SDS011;1493;51.496;7.210;2024-02-15T10:36:46;4.53;;;1.60;;
2966;SDS011;1493;51.496;7.210;2024-02-15T10:39:14;3.00;;;1.70;;
2966;SDS011;1493;51.496;7.210;2024-02-15T10:41:47;2.57;;;1.40;;
2966;SDS011;1493;51.496;7.210;2024-02-15T10:44:18;4.67;;;1.37;;
2966;SDS011;1493;51.496;7.210;2024-02-15T10:46:46;4.10;;;1.67;;
2966;SDS011;1493;51.496;7.210;2024-02-15T10:49:16;3.00;;;1.50;;
2966;SDS011;1493;51.496;7.210;2024-02-15T10:51:50;6.73;;;1.50;;
2966;SDS011;1493;51.496;7.210;2024-02-15T10:54:40;5.77;;;1.90;;
2966;SDS011;1493;51.496;7.210;2024-02-15T10:57:09;4.70;;;1.67;;
2966;SDS011;1493;51.496;7.210;2024-02-15T10:59:37;3.30;;;1.20;;
2966;SDS011;1493;51.496;7.210;2024-02-15T11:02:15;2.47;;;1.47;;
2966;SDS011;1493;51.496;7.210;2024-02-15T11:04:52;3.63;;;1.40;;
2966;SDS011;1493;51.496;7.210;2024-02-15T11:07:23;5.03;;;1.30;;
2966;SDS011;1493;51.496;7.210;2024-02-15T11:09:52;3.47;;;1.43;;
2966;SDS011;1493;51.496;7.210;2024-02-15T11:12:22;4.37;;;1.43;;
2966;SDS011;1493;51.496;7.210;2024-02-15T11:14:52;3.60;;;1.87;;
2966;SDS011;1493;51.496;7.210;2024-02-15T11:23:25;3.50;;;1.30;;
2966;SDS011;1493;51.496;7.210;2024-02-15T11:25:53;2.30;;;1.30;;
2966;SDS011;1493;51.496;7.210;2024-02-15T11:28:38;4.03;;;1.33;;
2966;SDS011;1493;51.496;7.210;2024-02-15T11:31:09;2.73;;;1.73;;
2966;SDS011;1493;51.496;7.210;2024-02-15T11:33:37;5.17;;;1.47;;
2966;SDS011;1493;51.496;7.210;2024-02-15T11:36:05;4.57;;;3.00;;
2966;SDS011;1493;51.496;7.210;2024-02-15T11:38:33;3.97;;;1.50;;
2966;SDS011;1493;51.496;7.210;2024-02-15T11:41:05;2.90;;;1.40;;
2966;SDS011;1493;51.496;7.210;2024-02-15T11:46:24;4.27;;;1.30;;
2966;SDS011;1493;51.496;7.210;2024-02-15T11:48:55;2.90;;;1.17;;
2966;SDS011;1493;51.496;7.210;2024-02-15T11:51:24;2.17;;;1.40;;
2966;SDS011;1493;51.496;7.210;2024-02-15T11:54:02;2.27;;;1.43;;
2966;SDS011;1493;51.496;7.210;2024-02-15T11:56:52;3.03;;;1.30;;
2966;SDS011;1493;51.496;7.210;2024-02-15T11:59:41;3.67;;;1.50;;
2966;SDS011;1493;51.496;7.210;2024-02-15T12:02:41;3.23;;;1.43;;
2966;SDS011;1493;51.496;7.210;2024-02-15T12:05:25;3.23;;;1.50;;
2966;SDS011;1493;51.496;7.210;2024-02-15T12:08:10;2.40;;;1.30;;
2966;SDS011;1493;51.496;7.210;2024-02-15T12:10:58;4.80;;;1.43;;
2966;SDS011;1493;51.496;7.210;2024-02-15T12:13:43;2.10;;;1.30;;
2966;SDS011;1493;51.496;7.210;2024-02-15T12:16:28;3.63;;;1.27;;
2966;SDS011;1493;51.496;7.210;2024-02-15T12:19:13;5.27;;;1.70;;
2966;SDS011;1493;51.496;7.210;2024-02-15T12:21:44;6.40;;;2.17;;
2966;SDS011;1493;51.496;7.210;2024-02-15T12:24:11;5.13;;;1.30;;
2966;SDS011;1493;51.496;7.210;2024-02-15T12:26:38;16.30;;;11.23;;
2966;SDS011;1493;51.496;7.210;2024-02-15T12:29:06;5.33;;;1.90;;
2966;SDS011;1493;51.496;7.210;2024-02-15T12:31:36;2.40;;;1.47;;
2966;SDS011;1493;51.496;7.210;2024-02-15T12:34:04;7.60;;;1.43;;
2966;SDS011;1493;51.496;7.210;2024-02-15T12:36:32;7.40;;;1.27;;
2966;SDS011;1493;51.496;7.210;2024-02-15T12:39:02;4.03;;;1.70;;
2966;SDS011;1493;51.496;7.210;2024-02-15T12:41:35;2.60;;;1.57;;
2966;SDS011;1493;51.496;7.210;2024-02-15T12:44:09;4.50;;;1.27;;
2966;SDS011;1493;51.496;7.210;2024-02-15T12:46:38;4.23;;;1.27;;
2966;SDS011;1493;51.496;7.210;2024-02-15T12:49:06;3.73;;;1.27;;
2966;SDS011;1493;51.496;7.210;2024-02-15T12:51:38;2.60;;;0.93;;
2966;SDS011;1493;51.496;7.210;2024-02-15T12:54:08;3.23;;;1.30;;
2966;SDS011;1493;51.496;7.210;2024-02-15T12:56:38;2.67;;;1.10;;
2966;SDS011;1493;51.496;7.210;2024-02-15T12:59:05;2.50;;;1.10;;
2966;SDS011;1493;51.496;7.210;2024-02-15T13:01:31;4.53;;;1.60;;
2966;SDS011;1493;51.496;7.210;2024-02-15T13:04:00;2.73;;;1.30;;
2966;SDS011;1493;51.496;7.210;2024-02-15T13:06:27;3.70;;;1.50;;
2966;SDS011;1493;51.496;7.210;2024-02-15T13:09:00;4.10;;;1.30;;
2966;SDS011;1493;51.496;7.210;2024-02-15T13:11:28;2.53;;;1.00;;
2966;SDS011;1493;51.496;7.210;2024-02-15T13:13:55;2.20;;;1.00;;
2966;SDS011;1493;51.496;7.210;2024-02-15T13:16:22;7.10;;;1.50;;
2966;SDS011;1493;51.496;7.210;2024-02-15T13:18:49;3.93;;;1.30;;
2966;SDS011;1493;51.496;7.210;2024-02-15T13:21:18;3.00;;;1.20;;
2966;SDS011;1493;51.496;7.210;2024-02-15T13:23:45;3.33;;;1.23;;
2966;SDS011;1493;51.496;7.210;2024-02-15T13:26:13;2.77;;;1.43;;
2966;SDS011;1493;51.496;7.210;2024-02-15T13:28:39;8.13;;;1.77;;
2966;SDS011;1493;51.496;7.210;2024-02-15T13:31:06;3.23;;;1.20;;
2966;SDS011;1493;51.496;7.210;2024-02-15T13:33:33;3.87;;;1.20;;
2966;SDS011;1493;51.496;7.210;2024-02-15T13:36:00;5.63;;;1.10;;
2966;SDS011;1493;51.496;7.210;2024-02-15T13:38:28;3.57;;;1.57;;
2966;SDS011;1493;51.496;7.210;2024-02-15T13:40:55;3.97;;;1.43;;
2966;SDS011;1493;51.496;7.210;2024-02-15T13:43:25;2.83;;;1.33;;
2966;SDS011;1493;51.496;7.210;2024-02-15T13:45:51;2.90;;;1.37;;
2966;SDS011;1493;51.496;7.210;2024-02-15T13:48:18;1.90;;;0.90;;
2966;SDS011;1493;51.496;7.210;2024-02-15T13:50:45;8.43;;;1.27;;
2966;SDS011;1493;51.496;7.210;2024-02-15T13:53:12;2.20;;;1.20;;
2966;SDS011;1493;51.496;7.210;2024-02-15T13:55:41;2.23;;;1.00;;
2966;SDS011;1493;51.496;7.210;2024-02-15T13:58:07;3.90;;;1.13;;
2966;SDS011;1493;51.496;7.210;2024-02-15T14:00:37;4.23;;;1.50;;
2966;SDS011;1493;51.496;7.210;2024-02-15T14:03:07;4.50;;;1.33;;
2966;SDS011;1493;51.496;7.210;2024-02-15T14:05:36;2.80;;;1.30;;
2966;SDS011;1493;51.496;7.210;2024-02-15T14:08:05;3.30;;;1.30;;
2966;SDS011;1493;51.496;7.210;2024-02-15T14:10:34;2.10;;;1.20;;
2966;SDS011;1493;51.496;7.210;2024-02-15T14:13:03;3.80;;;1.40;;
2966;SDS011;1493;51.496;7.210;2024-02-15T14:15:31;5.70;;;4.13;;
2966;SDS011;1493;51.496;7.210;2024-02-15T14:18:02;22.90;;;20.60;;
2966;SDS011;1493;51.496;7.210;2024-02-15T14:20:29;4.93;;;2.90;;
2966;SDS011;1493;51.496;7.210;2024-02-15T14:22:56;4.30;;;2.60;;
2966;SDS011;1493;51.496;7.210;2024-02-15T14:25:23;4.07;;;2.03;;
2966;SDS011;1493;51.496;7.210;2024-02-15T14:27:50;6.63;;;4.30;;
2966;SDS011;1493;51.496;7.210;2024-02-15T14:30:20;3.27;;;1.30;;
2966;SDS011;1493;51.496;7.210;2024-02-15T14:33:07;3.90;;;1.97;;
2966;SDS011;1493;51.496;7.210;2024-02-15T14:35:40;25.43;;;22.83;;
2966;SDS011;1493;51.496;7.210;2024-02-15T14:38:08;4.80;;;2.07;;
2966;SDS011;1493;51.496;7.210;2024-02-15T14:40:37;9.53;;;6.80;;
2966;SDS011;1493;51.496;7.210;2024-02-15T14:43:06;56.40;;;46.07;;
2966;SDS011;1493;51.496;7.210;2024-02-15T14:45:35;14.87;;;13.40;;
2966;SDS011;1493;51.496;7.210;2024-02-15T14:48:02;10.53;;;7.50;;
2966;SDS011;1493;51.496;7.210;2024-02-15T14:50:30;4.60;;;2.43;;
2966;SDS011;1493;51.496;7.210;2024-02-15T14:52:56;4.10;;;1.40;;
2966;SDS011;1493;51.496;7.210;2024-02-15T14:55:23;4.00;;;1.20;;
2966;SDS011;1493;51.496;7.210;2024-02-15T14:57:50;4.50;;;1.70;;
2966;SDS011;1493;51.496;7.210;2024-02-15T15:00:17;7.43;;;1.17;;
2966;SDS011;1493;51.496;7.210;2024-02-15T15:02:47;4.83;;;1.40;;
2966;SDS011;1493;51.496;7.210;2024-02-15T15:05:15;2.60;;;1.03;;
2966;SDS011;1493;51.496;7.210;2024-02-15T15:08:02;4.90;;;1.70;;
2966;SDS011;1493;51.496;7.210;2024-02-15T15:10:47;4.60;;;1.87;;
2966;SDS011;1493;51.496;7.210;2024-02-15T15:13:32;6.23;;;1.40;;
2966;SDS011;1493;51.496;7.210;2024-02-15T15:15:59;4.53;;;1.50;;
2966;SDS011;1493;51.496;7.210;2024-02-15T15:18:29;4.50;;;1.90;;
2966;SDS011;1493;51.496;7.210;2024-02-15T15:20:56;5.57;;;1.60;;
2966;SDS011;1493;51.496;7.210;2024-02-15T15:23:23;5.53;;;1.40;;
2966;SDS011;1493;51.496;7.210;2024-02-15T15:25:50;4.53;;;1.30;;
2966;SDS011;1493;51.496;7.210;2024-02-15T15:28:17;4.83;;;1.40;;
2966;SDS011;1493;51.496;7.210;2024-02-15T15:30:44;3.03;;;1.30;;